This is the latest recevied weather packets stored in our database for station/object KC9GSD. If no packets are shown the sender has not sent any weather packets the latest 10 day(s).
| Time | Temp. | Humidity | Pressure | Rain* | Wind** | Luminosity | Snow |
|---|---|---|---|---|---|---|---|
| 1777151515 | 24.44° C | 65% | 1008.1 hPa | 0 mm | - | 200 W/m² | - |
| 1777151212 | 25° C | 60% | 1007.9 hPa | 0 mm | - | 187 W/m² | - |
| 1777150911 | 26.11° C | 65% | 1007.9 hPa | 0 mm | - | 263 W/m² | - |
| 1777150607 | 25° C | 66% | 1008.1 hPa | 0 mm | - | 433 W/m² | - |
| 1777150302 | 25° C | 61% | 1008 hPa | 0 mm | - | 252 W/m² | - |
| 1777150001 | 25° C | 63% | 1008.1 hPa | 0 mm | - | 322 W/m² | - |
| 1777149696 | 25.56° C | 65% | 1008.2 hPa | 0 mm | - | 323 W/m² | - |
| 1777149393 | 25.56° C | 61% | 1008 hPa | 0 mm | - | 340 W/m² | - |
| 1777149089 | 25.56° C | 59% | 1008.2 hPa | 0 mm | - | 461 W/m² | - |
| 1777148789 | 26.67° C | 59% | 1008.1 hPa | 0 mm | - | 318 W/m² | - |
| 1777148486 | 26.11° C | 62% | 1008.4 hPa | 0 mm | - | 724 W/m² | - |
| 1777148182 | 26.11° C | 63% | 1008.3 hPa | 0 mm | - | 542 W/m² | - |
| 1777147878 | 25.56° C | 64% | 1008.4 hPa | 0 mm | - | 687 W/m² | - |
| 1777147575 | 25° C | 63% | 1008.5 hPa | 0 mm | - | 687 W/m² | - |
| 1777147269 | 25° C | 65% | 1008.6 hPa | 0 mm | - | 760 W/m² | - |
| 1777146965 | 23.89° C | 66% | 1008.8 hPa | 0 mm | - | 850 W/m² | - |
| 1777146662 | 23.89° C | 64% | 1008.8 hPa | 0 mm | - | 348 W/m² | - |
| 1777146357 | 23.89° C | 68% | 1008.7 hPa | 0 mm | - | 237 W/m² | - |
| 1777146054 | 23.89° C | 69% | 1008.9 hPa | 0 mm | - | 323 W/m² | - |
| 1777145750 | 23.89° C | 63% | 1008.9 hPa | 0 mm | - | 250 W/m² | - |
| 1777145446 | 24.44° C | 64% | 1009 hPa | 0 mm | - | 277 W/m² | - |
| 1777145141 | 25° C | 65% | 1008.9 hPa | 0 mm | - | 305 W/m² | - |
| 1777144836 | 25° C | 64% | 1008.9 hPa | 0 mm | - | 584 W/m² | - |
| 1777144535 | 25.56° C | 61% | 1008.9 hPa | 0 mm | - | 921 W/m² | - |
| 1777144232 | 25° C | 59% | 1009 hPa | 0 mm | - | 855 W/m² | - |
* Rain latest hour (hover to see other rain measurements)
** Current wind speed in m/s (hover to see current wind gust speed)